Time;durP1;ratioP1;P1;durP2;ratioP2;P2;SDS_P1;SDS_P2;PMS_P1;PMS_P2;Temp;Humidity;BMP_temperature;BMP_pressure;BME280_temperature;BME280_humidity;BME280_pressure;Samples;Min_cycle;Max_cycle;Signal;HPM_P1;HPM_P2
2023/09/13 00:01:09;;;;;;;5.57;1.40;;;;;;;18.91;85.29;101402.06;7398824;19;19922;-71
2023/09/13 00:04:00;;;;;;;5.60;1.88;;;;;;;18.88;85.35;101391.59;7397961;19;19929;-71
2023/09/13 00:06:29;;;;;;;5.75;0.80;;;;;;;18.85;85.75;101391.19;7394565;19;19947;-71
2023/09/13 00:08:58;;;;;;;3.28;1.48;;;;;;;18.83;85.90;101387.84;7399452;19;19918;-71
2023/09/13 00:11:26;;;;;;;3.42;1.23;;;;;;;18.80;85.48;101394.56;7396717;19;19947;-71
2023/09/13 00:13:56;;;;;;;8.80;1.08;;;;;;;18.79;85.54;101392.91;7397714;19;19923;-71
2023/09/13 00:16:24;;;;;;;3.95;1.20;;;;;;;18.78;85.52;101388.50;7397869;19;20005;-71
2023/09/13 00:18:53;;;;;;;7.78;1.85;;;;;;;18.75;85.14;101391.66;7393053;19;19934;-71
2023/09/13 00:21:24;;;;;;;4.10;1.40;;;;;;;18.75;85.05;101385.38;7395433;19;19922;-71
2023/09/13 00:24:14;;;;;;;7.95;1.30;;;;;;;18.72;85.12;101385.81;7393569;19;20025;-71
2023/09/13 00:26:42;;;;;;;3.35;0.93;;;;;;;18.69;84.99;101376.13;7395419;19;19986;-71
2023/09/13 00:29:11;;;;;;;6.43;1.25;;;;;;;18.68;85.08;101373.66;7395880;19;19926;-71
2023/09/13 00:31:40;;;;;;;3.53;1.33;;;;;;;18.65;84.95;101377.63;7394204;19;19930;-71
2023/09/13 00:34:09;;;;;;;9.65;1.25;;;;;;;18.63;84.56;101374.31;7391635;19;20360;-72
2023/09/13 00:36:40;;;;;;;3.85;1.15;;;;;;;18.61;84.64;101373.66;7396560;19;19942;-71
2023/09/13 00:39:09;;;;;;;;;;;;;;;18.37;85.36;101371.66;7399075;19;19930;-70
2023/09/13 00:41:37;;;;;;;3.55;1.20;;;;;;;18.50;84.83;101371.59;7398035;19;19935;-71
2023/09/13 00:44:06;;;;;;;9.25;1.33;;;;;;;18.48;84.88;101373.69;7396063;19;20357;-71
2023/09/13 00:46:36;;;;;;;6.35;1.50;;;;;;;18.49;85.31;101370.75;7396803;19;19927;-72
2023/09/13 00:49:06;;;;;;;10.32;1.73;;;;;;;18.50;84.88;101371.59;7395251;19;20353;-71
2023/09/13 00:51:59;;;;;;;12.48;1.80;;;;;;;18.47;85.14;101377.47;7396235;19;20015;-71
2023/09/13 00:54:29;;;;;;;5.97;1.30;;;;;;;18.45;84.44;101374.97;7397648;19;19923;-71
2023/09/13 00:56:59;;;;;;;4.93;1.23;;;;;;;18.45;84.50;101379.59;7391899;19;20474;-72
2023/09/13 00:59:28;;;;;;;4.53;1.33;;;;;;;18.41;84.31;101376.47;7394641;19;19986;-71
2023/09/13 01:01:57;;;;;;;3.90;1.13;;;;;;;18.40;84.77;101393.88;7397039;19;19918;-71
2023/09/13 01:04:26;;;;;;;7.85;1.50;;;;;;;18.40;84.48;101390.31;7397872;19;19948;-71
2023/09/13 01:06:58;;;;;;;5.20;1.48;;;;;;;18.38;84.25;101392.44;7399648;19;20556;-71
2023/09/13 01:09:46;;;;;;;6.18;1.25;;;;;;;18.38;84.25;101395.16;7390003;19;19980;-71
2023/09/13 01:12:16;;;;;;;6.47;1.20;;;;;;;18.37;84.72;101401.66;7396454;19;19922;-71
2023/09/13 01:14:46;;;;;;;6.88;1.20;;;;;;;18.36;84.94;101403.56;7395701;19;19925;-71
2023/09/13 01:17:22;;;;;;;6.95;1.55;;;;;;;18.35;84.72;101401.03;7388399;19;19955;-71
2023/09/13 01:19:57;;;;;;;3.90;1.10;;;;;;;18.32;84.33;101402.31;7394097;19;19925;-71
2023/09/13 01:22:51;;;;;;;7.28;2.58;;;;;;;18.23;84.66;101403.59;7396495;19;19934;-71
2023/09/13 01:26:01;;;;;;;4.97;0.95;;;;;;;18.18;84.99;101410.72;7396150;19;20015;-71
2023/09/13 01:28:38;;;;;;;5.47;1.25;;;;;;;18.21;85.10;101410.31;7389236;19;19974;-71
2023/09/13 01:31:08;;;;;;;3.22;1.10;;;;;;;18.23;84.91;101405.47;7393547;19;19914;-71
2023/09/13 01:33:37;;;;;;;6.25;1.25;;;;;;;18.21;85.13;101407.59;7392532;19;19918;-71
2023/09/13 01:36:07;;;;;;;8.23;1.33;;;;;;;18.23;84.68;101413.66;7392591;19;19926;-71
2023/09/13 01:38:36;;;;;;;4.57;1.23;;;;;;;18.22;85.24;101410.09;7391954;19;19923;-72
2023/09/13 01:41:10;;;;;;;5.97;1.65;;;;;;;18.20;85.21;101417.66;7393526;19;20608;-71
2023/09/13 01:43:43;;;;;;;5.15;1.25;;;;;;;18.16;85.23;101408.25;7394138;19;19926;-71
2023/09/13 01:46:14;;;;;;;4.80;0.95;;;;;;;18.19;85.56;101423.31;7392833;19;19918;-71
2023/09/13 01:48:44;;;;;;;7.43;1.10;;;;;;;18.17;85.71;101409.03;7394276;19;19922;-71
2023/09/13 01:51:13;;;;;;;5.00;1.45;;;;;;;18.14;85.12;101413.91;7393428;19;19926;-71
2023/09/13 01:53:46;;;;;;;4.72;1.20;;;;;;;18.11;85.01;101414.31;7392971;19;19958;-71
2023/09/13 01:56:16;;;;;;;4.72;1.05;;;;;;;18.09;85.27;101423.75;7393016;19;19934;-71
2023/09/13 01:58:48;;;;;;;6.18;1.30;;;;;;;18.08;84.94;101411.16;7393498;19;19923;-71
2023/09/13 02:01:17;;;;;;;4.43;1.10;;;;;;;18.08;84.79;101427.53;7391113;19;19946;-70
2023/09/13 02:03:47;;;;;;;6.57;1.58;;;;;;;18.06;84.86;101425.03;7395336;19;19923;-71
2023/09/13 02:06:35;;;;;;;6.50;1.25;;;;;;;18.05;85.48;101419.78;7391250;19;19936;-71
2023/09/13 02:09:04;;;;;;;8.15;1.90;;;;;;;18.04;85.32;101421.66;7394623;19;19929;-71
2023/09/13 02:11:34;;;;;;;6.97;1.20;;;;;;;18.04;85.31;101423.56;7393806;19;19926;-71
2023/09/13 02:14:05;;;;;;;8.10;1.33;;;;;;;18.03;85.27;101433.63;7395354;19;19969;-72
2023/09/13 02:16:34;;;;;;;4.32;1.50;;;;;;;18.01;85.16;101433.00;7391099;19;19923;-71
2023/09/13 02:19:04;;;;;;;5.75;1.55;;;;;;;18.00;85.56;101431.31;7393906;19;19926;-71
2023/09/13 02:21:32;;;;;;;7.95;1.33;;;;;;;17.97;85.27;101418.13;7392667;19;20320;-71
2023/09/13 02:24:01;;;;;;;5.38;1.20;;;;;;;17.94;86.10;101421.28;7394280;19;19942;-71
2023/09/13 02:26:50;;;;;;;3.80;1.58;;;;;;;17.92;85.57;101417.91;7393111;19;19941;-71
2023/09/13 02:29:21;;;;;;;8.27;1.40;;;;;;;17.91;86.09;101408.06;7390969;19;19960;-71
2023/09/13 02:32:11;;;;;;;3.97;1.10;;;;;;;17.89;86.20;101407.44;7392739;19;19930;-71
2023/09/13 02:34:39;;;;;;;6.75;1.42;;;;;;;17.87;85.38;101406.81;7396603;19;19927;-71
2023/09/13 02:37:09;;;;;;;9.02;1.30;;;;;;;17.86;85.42;101412.50;7397347;19;19922;-71
2023/09/13 02:39:41;;;;;;;10.18;1.67;;;;;;;17.85;85.64;101410.81;7394810;19;20356;-71
2023/09/13 02:42:10;;;;;;;5.10;1.42;;;;;;;17.81;85.85;101410.41;7395160;19;19952;-71
2023/09/13 02:44:41;;;;;;;3.60;1.13;;;;;;;17.81;85.78;101412.28;7399465;19;20262;-71
2023/09/13 02:47:10;;;;;;;9.88;2.28;;;;;;;17.80;85.66;101411.44;7401875;19;19918;-71
2023/09/13 02:49:39;;;;;;;7.63;1.65;;;;;;;17.80;85.63;101414.16;7399529;19;19922;-71
2023/09/13 02:52:08;;;;;;;3.40;1.23;;;;;;;17.80;85.42;101411.44;7399737;19;19918;-72
2023/09/13 02:54:37;;;;;;;4.68;1.40;;;;;;;17.76;85.74;101415.63;7400969;19;19918;-71
2023/09/13 02:57:08;;;;;;;3.10;1.10;;;;;;;17.78;85.59;101416.25;7398228;19;19926;-71
2023/09/13 02:59:37;;;;;;;6.07;1.00;;;;;;;17.72;85.42;101417.09;7401742;19;19952;-71
2023/09/13 03:02:08;;;;;;;3.10;1.10;;;;;;;17.70;85.49;101413.72;7400302;19;20331;-71
2023/09/13 03:04:37;;;;;;;5.38;1.15;;;;;;;17.66;85.82;101415.22;7400698;19;19922;-71
2023/09/13 03:07:05;;;;;;;7.82;1.95;;;;;;;17.66;85.96;101412.47;7398576;19;19947;-70
2023/09/13 03:09:34;;;;;;;3.50;1.20;;;;;;;17.65;85.77;101410.81;7398421;19;19926;-71
2023/09/13 03:12:05;;;;;;;4.88;1.20;;;;;;;17.62;85.79;101417.53;7399620;19;19923;-71
2023/09/13 03:14:34;;;;;;;6.80;1.60;;;;;;;17.62;85.79;101413.94;7399363;19;20341;-71
2023/09/13 03:17:03;;;;;;;4.90;1.40;;;;;;;17.61;85.54;101420.44;7399261;19;19923;-71
2023/09/13 03:19:34;;;;;;;6.63;1.40;;;;;;;17.61;85.75;101429.47;7396316;19;19934;-71
2023/09/13 03:22:03;;;;;;;5.68;1.20;;;;;;;17.58;86.19;101429.88;7399058;19;19922;-71
2023/09/13 03:24:32;;;;;;;6.60;1.55;;;;;;;17.60;85.77;101421.50;7396670;19;20274;-71
2023/09/13 03:27:21;;;;;;;5.03;1.60;;;;;;;17.60;85.78;101418.78;7398103;19;19922;-70
2023/09/13 03:29:49;;;;;;;5.32;1.20;;;;;;;17.59;85.78;101415.22;7396520;19;19926;-70
2023/09/13 03:32:18;;;;;;;3.75;1.10;;;;;;;17.59;85.86;101419.84;7398867;19;19919;-70
2023/09/13 03:34:51;;;;;;;3.88;1.20;;;;;;;17.58;85.95;101415.44;7391220;19;19930;-71
2023/09/13 03:37:20;;;;;;;4.53;1.00;;;;;;;17.56;86.63;101409.31;7394970;19;19993;-71
2023/09/13 03:39:48;;;;;;;3.25;1.10;;;;;;;17.55;86.15;101405.75;7391889;19;20519;-71
2023/09/13 03:42:17;;;;;;;4.82;0.95;;;;;;;17.50;85.63;101413.72;7400955;19;19926;-71
2023/09/13 03:44:45;;;;;;;6.85;1.65;;;;;;;17.47;85.13;101419.59;7395967;19;19926;-71
2023/09/13 03:47:14;;;;;;;7.70;1.70;;;;;;;17.46;85.06;101427.97;7395496;19;19926;-71
2023/09/13 03:49:43;;;;;;;4.72;1.00;;;;;;;17.46;84.87;101427.97;7393801;19;19923;-72
2023/09/13 03:52:14;;;;;;;10.80;1.20;;;;;;;17.45;85.07;101424.41;7390057;19;19922;-71
2023/09/13 03:54:43;;;;;;;5.88;1.70;;;;;;;17.44;84.31;101430.03;7391389;19;19933;-71
2023/09/13 03:57:11;;;;;;;4.93;1.10;;;;;;;17.40;84.30;101418.72;7399969;19;20242;-71
2023/09/13 03:59:40;;;;;;;5.25;1.05;;;;;;;17.36;84.75;101422.91;7399469;19;19926;-70
2023/09/13 04:02:09;;;;;;;3.50;1.08;;;;;;;17.33;84.09;101417.06;7397726;19;19953;-70
2023/09/13 04:04:38;;;;;;;8.48;2.10;;;;;;;17.29;83.93;101413.91;7397568;19;19918;-70
2023/09/13 04:07:07;;;;;;;2.42;0.90;;;;;;;17.23;83.85;101417.47;7399127;19;19922;-71
2023/09/13 04:09:38;;;;;;;3.63;1.10;;;;;;;17.20;83.72;101429.63;7397867;19;19922;-70
2023/09/13 04:12:07;;;;;;;6.15;1.30;;;;;;;17.17;83.08;101418.31;7395997;19;19922;-70
2023/09/13 04:14:36;;;;;;;4.50;1.48;;;;;;;17.13;83.25;101420.56;7388227;19;19934;-69
2023/09/13 04:17:06;;;;;;;7.38;1.30;;;;;;;17.13;83.55;101417.00;7394559;19;19923;-69
2023/09/13 04:19:34;;;;;;;5.75;1.25;;;;;;;17.10;83.63;101410.09;7396885;19;19926;-69
2023/09/13 04:22:03;;;;;;;4.50;1.20;;;;;;;17.08;83.28;101412.22;7396915;19;19935;-69
2023/09/13 04:24:33;;;;;;;3.95;1.00;;;;;;;17.07;83.18;101418.69;7397921;19;20582;-69
2023/09/13 04:27:04;;;;;;;5.22;0.95;;;;;;;17.04;82.93;101423.72;7398566;19;19978;-68
2023/09/13 04:29:53;;;;;;;4.55;0.93;;;;;;;16.99;82.99;101426.22;7393996;19;20013;-69
2023/09/13 04:32:22;;;;;;;5.70;1.02;;;;;;;16.98;82.63;101422.66;7396167;19;19922;-69
2023/09/13 04:34:50;;;;;;;7.28;0.98;;;;;;;16.97;82.81;101420.13;7397233;19;19922;-69
2023/09/13 04:37:19;;;;;;;6.32;1.40;;;;;;;16.95;82.52;101427.66;7396731;19;19929;-69
2023/09/13 04:39:48;;;;;;;7.13;1.67;;;;;;;16.95;82.32;101425.78;7397056;19;19930;-69
2023/09/13 04:42:19;;;;;;;5.95;0.90;;;;;;;16.97;82.75;101431.00;7396826;19;20266;-68
2023/09/13 04:45:09;;;;;;;3.10;0.90;;;;;;;16.94;82.30;101437.72;7395178;19;19921;-69
2023/09/13 04:47:38;;;;;;;9.13;1.02;;;;;;;16.90;82.60;101432.88;7398065;19;19915;-69
2023/09/13 04:50:09;;;;;;;5.07;0.90;;;;;;;16.89;82.48;101425.75;7395919;19;19923;-68
2023/09/13 04:52:38;;;;;;;5.03;0.80;;;;;;;16.85;82.96;101428.06;7396241;19;19918;-69
2023/09/13 04:55:07;;;;;;;7.13;1.45;;;;;;;16.81;83.08;101428.66;7392180;19;19942;-70
2023/09/13 04:57:39;;;;;;;2.63;0.80;;;;;;;16.76;83.12;101427.41;7397826;19;19942;-69
2023/09/13 05:00:11;;;;;;;4.82;1.33;;;;;;;16.72;83.00;101431.56;7396251;19;19954;-69
2023/09/13 05:02:39;;;;;;;3.50;1.00;;;;;;;16.65;83.88;101441.56;7395825;19;19930;-69
2023/09/13 05:05:10;;;;;;;9.82;1.25;;;;;;;16.63;83.87;101443.66;7397415;19;20397;-69
2023/09/13 05:07:39;;;;;;;5.07;1.05;;;;;;;16.62;83.23;101454.75;7397085;19;19946;-69
2023/09/13 05:10:08;;;;;;;7.05;1.13;;;;;;;16.64;83.40;101458.09;7394560;19;19954;-69
2023/09/13 05:12:39;;;;;;;4.20;0.90;;;;;;;16.62;83.18;101468.34;7397694;19;20297;-68
2023/09/13 05:15:09;;;;;;;6.68;1.05;;;;;;;16.61;83.33;101467.50;7390663;19;20325;-69
2023/09/13 05:17:39;;;;;;;5.90;1.05;;;;;;;16.59;82.85;101464.16;7394236;19;19923;-69
2023/09/13 05:20:09;;;;;;;5.07;1.05;;;;;;;16.56;82.54;101471.84;7395909;19;19930;-69
2023/09/13 05:22:38;;;;;;;3.63;1.02;;;;;;;16.54;82.27;101477.50;7395317;19;19943;-69
2023/09/13 05:25:08;;;;;;;5.35;1.15;;;;;;;16.55;82.53;101483.78;7397759;19;20369;-70
2023/09/13 05:27:39;;;;;;;6.95;2.00;;;;;;;16.55;82.16;101483.78;7394907;19;19926;-69
2023/09/13 05:30:09;;;;;;;11.00;1.95;;;;;;;16.56;82.41;101485.47;7393417;19;19938;-69
2023/09/13 05:32:38;;;;;;;3.55;0.82;;;;;;;16.50;81.88;101491.69;7390745;19;19923;-69
2023/09/13 05:35:07;;;;;;;3.90;1.05;;;;;;;16.48;81.97;101494.59;7393586;19;19946;-69
2023/09/13 05:37:36;;;;;;;7.10;1.17;;;;;;;16.47;82.59;101492.09;7390721;19;19926;-69
2023/09/13 05:40:07;;;;;;;4.25;1.00;;;;;;;16.43;82.99;101502.53;7397521;19;19926;-69
2023/09/13 05:42:38;;;;;;;7.97;1.15;;;;;;;16.40;82.53;101502.91;7392546;19;19927;-69
2023/09/13 05:45:08;;;;;;;5.63;0.90;;;;;;;16.35;83.34;101511.66;7394985;19;19923;-69
2023/09/13 05:47:37;;;;;;;6.82;0.90;;;;;;;16.31;82.56;101518.56;7392478;19;19922;-69
2023/09/13 05:50:06;;;;;;;4.68;1.15;;;;;;;16.30;82.78;101516.91;7395053;19;20340;-69
2023/09/13 05:52:37;;;;;;;8.68;1.50;;;;;;;16.27;83.09;101535.47;7388075;19;19925;-69
2023/09/13 05:55:06;;;;;;;5.03;1.42;;;;;;;16.27;83.55;101544.47;7382044;19;20251;-70
2023/09/13 05:57:35;;;;;;;3.88;1.50;;;;;;;16.24;83.40;101558.47;7389483;19;20328;-68
2023/09/13 06:00:08;;;;;;;4.30;1.25;;;;;;;16.22;83.62;101579.53;7384548;19;19919;-70
2023/09/13 06:02:37;;;;;;;5.93;1.10;;;;;;;16.20;83.87;101581.63;7390649;19;19930;-69
2023/09/13 06:05:09;;;;;;;7.25;1.55;;;;;;;16.17;83.87;101573.03;7386561;19;19922;-70
2023/09/13 06:07:38;;;;;;;5.90;1.95;;;;;;;16.11;84.55;101571.94;7388935;19;19957;-70
2023/09/13 06:10:07;;;;;;;5.43;1.35;;;;;;;16.08;83.98;101577.78;7386603;19;19927;-69
2023/09/13 06:12:36;;;;;;;7.00;1.20;;;;;;;16.01;84.58;101579.56;7385697;19;19941;-68
2023/09/13 06:15:09;;;;;;;3.45;1.20;;;;;;;15.98;85.05;101581.84;7381714;19;19926;-69
2023/09/13 06:17:38;;;;;;;6.65;1.23;;;;;;;15.94;85.64;101595.00;7391165;19;20451;-68
2023/09/13 06:20:08;;;;;;;4.00;1.20;;;;;;;15.94;85.53;101600.44;7387559;19;20548;-68
2023/09/13 06:22:37;;;;;;;7.20;1.33;;;;;;;15.92;85.99;101607.91;7384473;19;19923;-68
2023/09/13 06:25:26;;;;;;;2.40;1.10;;;;;;;15.92;85.51;101615.25;7393270;19;19933;-69
2023/09/13 06:27:54;;;;;;;5.10;1.20;;;;;;;15.92;84.96;101629.66;7380058;19;19923;-68
2023/09/13 06:30:26;;;;;;;5.20;1.42;;;;;;;15.92;85.50;101626.13;7392121;19;19923;-68
2023/09/13 06:32:54;;;;;;;5.35;1.20;;;;;;;15.88;85.46;101645.50;7395372;19;20402;-69
2023/09/13 06:35:23;;;;;;;8.32;1.50;;;;;;;15.86;85.84;101655.75;7396279;19;20349;-68
2023/09/13 06:37:52;;;;;;;5.10;1.05;;;;;;;15.82;86.05;101675.34;7395040;19;19937;-68
2023/09/13 06:40:43;;;;;;;3.45;1.10;;;;;;;15.80;85.91;101671.97;7392920;19;19925;-68
2023/09/13 06:43:12;;;;;;;5.15;1.20;;;;;;;15.76;86.40;101679.66;7395814;19;19926;-68
2023/09/13 06:45:44;;;;;;;4.97;1.15;;;;;;;15.76;87.04;101671.50;7396119;19;19943;-68
2023/09/13 06:48:13;;;;;;;3.90;1.17;;;;;;;15.73;86.75;101677.34;7394102;19;19922;-68
2023/09/13 06:50:41;;;;;;;4.25;1.20;;;;;;;15.70;86.71;101675.00;7394990;19;19927;-68
2023/09/13 06:53:10;;;;;;;6.57;1.60;;;;;;;15.66;86.62;101673.69;7396067;19;19953;-69
2023/09/13 06:55:38;;;;;;;3.92;1.00;;;;;;;15.67;86.98;101677.25;7392373;19;19922;-67
2023/09/13 06:58:09;;;;;;;6.30;1.50;;;;;;;15.64;86.86;101681.19;7392043;19;19930;-68
2023/09/13 07:01:00;;;;;;;6.95;2.00;;;;;;;15.59;86.64;101688.22;7395712;19;20034;-68
2023/09/13 07:03:29;;;;;;;9.88;1.63;;;;;;;15.57;87.14;101695.72;7395570;19;19927;-68
2023/09/13 07:05:58;;;;;;;8.05;1.73;;;;;;;15.57;87.15;101701.16;7396942;19;19952;-68
2023/09/13 07:08:26;;;;;;;6.93;1.70;;;;;;;15.57;86.69;101703.88;7392916;19;19923;-68
2023/09/13 07:10:55;;;;;;;7.20;1.38;;;;;;;15.58;86.92;101711.81;7391589;19;20344;-68
2023/09/13 07:13:25;;;;;;;6.90;1.50;;;;;;;15.56;86.35;101715.75;7395195;19;19939;-68
2023/09/13 07:15:53;;;;;;;5.35;1.42;;;;;;;15.50;85.24;101721.91;7396868;19;20455;-68
2023/09/13 07:18:26;;;;;;;8.27;1.80;;;;;;;15.46;85.18;101710.59;7399425;19;20280;-68
2023/09/13 07:20:54;;;;;;;8.57;1.60;;;;;;;15.39;85.17;101715.94;7400997;19;20285;-69
2023/09/13 07:23:23;;;;;;;3.47;1.60;;;;;;;15.33;85.19;101711.25;7399675;19;19935;-68
2023/09/13 07:25:51;;;;;;;7.25;1.55;;;;;;;15.29;84.67;101720.78;7401386;19;20357;-68
2023/09/13 07:28:20;;;;;;;12.07;2.30;;;;;;;15.21;84.38;101736.34;7399037;19;19930;-68
2023/09/13 07:30:49;;;;;;;5.97;1.80;;;;;;;15.14;84.60;101730.81;7401462;19;20307;-68
2023/09/13 07:33:17;;;;;;;6.97;1.70;;;;;;;15.09;84.54;101735.97;7396922;19;19922;-68
2023/09/13 07:35:49;;;;;;;5.80;1.60;;;;;;;15.06;85.27;101732.78;7401066;19;20381;-68
2023/09/13 07:38:37;;;;;;;4.80;1.60;;;;;;;15.03;85.42;101736.69;7398495;19;20306;-68
2023/09/13 07:41:06;;;;;;;5.88;1.50;;;;;;;15.06;86.24;101732.78;7392377;19;19937;-68
2023/09/13 07:43:35;;;;;;;6.97;1.77;;;;;;;15.10;85.95;101736.81;7401681;19;19922;-68
2023/09/13 07:46:04;;;;;;;8.55;2.22;;;;;;;15.13;85.98;101734.56;7394575;19;19922;-68
2023/09/13 07:48:32;;;;;;;4.47;1.70;;;;;;;15.14;86.12;101738.97;7397401;19;19935;-68
2023/09/13 07:51:05;;;;;;;6.30;1.80;;;;;;;15.20;85.69;101732.78;7399060;19;19919;-68
2023/09/13 07:53:33;;;;;;;4.55;1.50;;;;;;;15.26;85.88;101736.63;7392599;19;19929;-68
2023/09/13 07:56:02;;;;;;;3.90;1.38;;;;;;;15.32;85.91;101741.28;7400809;19;19946;-68
2023/09/13 07:58:31;;;;;;;9.00;1.60;;;;;;;15.36;85.77;101738.00;7396421;19;19946;-68
2023/09/13 08:01:00;;;;;;;4.82;1.55;;;;;;;15.41;85.66;101730.16;7401958;19;20222;-67
2023/09/13 08:03:28;;;;;;;5.45;1.48;;;;;;;15.45;85.24;101738.75;7400777;19;20356;-68
2023/09/13 08:05:59;;;;;;;6.75;1.95;;;;;;;15.48;85.71;101743.84;7398686;19;19918;-68
2023/09/13 08:08:50;;;;;;;5.18;1.48;;;;;;;15.54;85.76;101748.53;7401003;19;20507;-68
2023/09/13 08:11:39;;;;;;;4.30;1.60;;;;;;;15.61;85.86;101743.22;7396764;19;19929;-68
2023/09/13 08:14:08;;;;;;;3.17;1.25;;;;;;;15.68;85.54;101746.84;7399229;19;20579;-68
2023/09/13 08:16:37;;;;;;;6.22;1.55;;;;;;;15.74;85.40;101744.22;7398941;19;19947;-68
2023/09/13 08:19:27;;;;;;;6.78;1.60;;;;;;;15.83;85.29;101745.78;7395650;19;19956;-68
2023/09/13 08:21:55;;;;;;;4.63;1.50;;;;;;;15.88;85.92;101742.50;7400993;19;19918;-68
2023/09/13 08:24:27;;;;;;;3.88;1.38;;;;;;;15.93;86.09;101747.34;7399408;19;19947;-68
2023/09/13 08:26:55;;;;;;;3.00;1.02;;;;;;;15.97;85.22;101751.38;7398746;19;19947;-68
2023/09/13 08:29:24;;;;;;;4.78;1.33;;;;;;;15.98;85.75;101743.03;7398319;19;19922;-68
2023/09/13 08:31:53;;;;;;;5.65;2.22;;;;;;;16.04;85.57;101747.72;7397554;19;19946;-68
2023/09/13 08:34:22;;;;;;;6.40;1.55;;;;;;;16.09;85.22;101739.00;7399294;19;19918;-67
2023/09/13 08:36:53;;;;;;;5.53;1.95;;;;;;;16.14;85.17;101759.13;7399856;19;19929;-68
2023/09/13 08:39:22;;;;;;;6.97;1.25;;;;;;;16.20;84.88;101754.78;7399244;19;19930;-68
2023/09/13 08:41:55;;;;;;;5.22;1.50;;;;;;;16.25;84.44;101755.06;7398801;19;19923;-68
2023/09/13 08:44:25;;;;;;;5.82;1.20;;;;;;;16.31;84.60;101755.13;7398877;19;19954;-68
2023/09/13 08:46:55;;;;;;;6.80;1.20;;;;;;;16.36;84.26;101765.41;7401502;19;19914;-68
2023/09/13 08:49:25;;;;;;;6.35;1.20;;;;;;;16.38;83.77;101760.66;7399695;19;19979;-68
2023/09/13 08:51:55;;;;;;;4.93;1.30;;;;;;;16.42;83.64;101766.53;7398492;19;19915;-68
2023/09/13 08:54:25;;;;;;;2.78;1.10;;;;;;;16.51;83.87;101770.81;7399380;19;19914;-68
2023/09/13 08:56:57;;;;;;;3.55;1.13;;;;;;;16.60;83.82;101770.53;7399746;19;19954;-68
2023/09/13 08:59:27;;;;;;;4.90;1.55;;;;;;;16.70;84.03;101764.75;7395437;19;19930;-68
2023/09/13 09:01:57;;;;;;;7.50;1.30;;;;;;;16.81;83.28;101753.34;7396288;19;19958;-68
2023/09/13 09:04:26;;;;;;;4.35;1.30;;;;;;;16.93;82.89;101764.53;7398493;19;19951;-67
2023/09/13 09:06:56;;;;;;;5.15;1.30;;;;;;;17.01;82.22;101778.84;7399236;19;20348;-68
2023/09/13 09:09:31;;;;;;;6.03;1.20;;;;;;;17.10;81.32;101785.81;7395296;19;20305;-68
2023/09/13 09:12:04;;;;;;;6.93;1.50;;;;;;;17.15;80.79;101794.25;7398366;19;19926;-67
2023/09/13 09:14:34;;;;;;;7.60;1.60;;;;;;;17.21;80.35;101793.44;7399819;19;19946;-69
2023/09/13 09:17:25;;;;;;;9.75;1.70;;;;;;;17.29;80.35;101797.06;7395955;19;20471;-68
2023/09/13 09:20:14;;;;;;;5.07;1.45;;;;;;;17.38;80.43;101804.06;7394797;19;19923;-69
2023/09/13 09:22:43;;;;;;;6.82;1.33;;;;;;;17.41;79.99;101807.22;7398912;19;20666;-68
2023/09/13 09:25:14;;;;;;;6.00;1.08;;;;;;;17.46;80.24;101810.19;7399118;19;19982;-68
2023/09/13 09:27:46;;;;;;;3.13;1.42;;;;;;;17.50;79.95;101811.47;7399441;19;19918;-68
2023/09/13 09:30:16;;;;;;;6.53;1.67;;;;;;;17.57;79.70;101809.63;7399490;19;19922;-68
2023/09/13 09:32:46;;;;;;;5.22;1.40;;;;;;;17.57;78.16;101806.91;7396669;19;19929;-68
2023/09/13 09:35:15;;;;;;;9.38;1.73;;;;;;;17.62;79.20;101828.13;7397450;19;19923;-68
2023/09/13 09:37:44;;;;;;;6.97;1.40;;;;;;;17.68;78.56;101830.91;7397201;19;19922;-68
2023/09/13 09:40:14;;;;;;;4.72;1.80;;;;;;;17.75;78.30;101836.41;7390718;19;19922;-68
2023/09/13 09:42:45;;;;;;;6.72;1.13;;;;;;;17.86;78.07;101844.00;7386078;19;19921;-68
2023/09/13 09:45:14;;;;;;;7.88;1.48;;;;;;;17.96;77.71;101860.84;7397921;19;20341;-69
2023/09/13 09:47:43;;;;;;;5.63;1.45;;;;;;;18.05;77.04;101866.97;7399135;19;19929;-68
2023/09/13 09:50:13;;;;;;;6.18;1.30;;;;;;;18.13;76.56;101870.38;7397496;19;19950;-69
2023/09/13 09:52:42;;;;;;;10.05;1.48;;;;;;;18.20;75.88;101877.75;7398414;19;19958;-68
2023/09/13 09:55:16;;;;;;;6.47;1.50;;;;;;;18.21;75.14;101879.44;7396751;19;19948;-69
2023/09/13 09:57:52;;;;;;;6.55;1.40;;;;;;;18.18;74.48;101868.91;7395077;19;19922;-69
2023/09/13 10:00:22;;;;;;;4.63;1.27;;;;;;;18.25;74.97;101878.81;7394205;19;19927;-68
2023/09/13 10:02:52;;;;;;;6.55;1.40;;;;;;;18.24;74.94;101876.31;7399119;19;19919;-69
2023/09/13 10:05:21;;;;;;;4.90;1.60;;;;;;;18.17;75.96;101878.97;7397897;19;19923;-68
2023/09/13 10:07:54;;;;;;;9.65;1.50;;;;;;;18.13;75.77;101884.00;7397154;19;19918;-69
2023/09/13 10:10:33;;;;;;;4.45;1.52;;;;;;;18.03;74.86;101891.69;7395333;19;19932;-68
2023/09/13 10:13:06;;;;;;;10.50;1.63;;;;;;;18.03;75.48;101893.63;7395455;19;19942;-69
2023/09/13 10:15:35;;;;;;;5.35;1.30;;;;;;;18.03;75.28;101902.59;7396291;19;20556;-69
2023/09/13 10:18:05;;;;;;;8.40;1.75;;;;;;;17.98;76.11;101901.53;7397147;19;19927;-69
2023/09/13 10:20:55;;;;;;;7.93;1.35;;;;;;;17.91;75.24;101906.94;7395116;19;19918;-69
2023/09/13 10:23:27;;;;;;;4.60;1.38;;;;;;;17.90;74.10;101905.28;7395078;19;19950;-69
2023/09/13 10:25:57;;;;;;;5.15;1.20;;;;;;;17.92;75.18;101916.81;7398015;19;19926;-69
2023/09/13 10:28:32;;;;;;;7.53;1.42;;;;;;;17.89;73.52;101911.78;7398245;19;19914;-69
2023/09/13 10:31:04;;;;;;;8.13;1.13;;;;;;;17.95;74.19;101913.69;7394262;19;19922;-68
2023/09/13 10:33:34;;;;;;;6.68;1.35;;;;;;;18.02;73.98;101921.91;7395486;19;20028;-68
2023/09/13 10:36:08;;;;;;;6.53;1.10;;;;;;;18.10;73.89;101925.31;7396557;19;19918;-68
2023/09/13 10:38:48;;;;;;;5.72;1.42;;;;;;;18.14;72.03;101928.50;7396393;19;19934;-68
2023/09/13 10:41:20;;;;;;;6.90;1.60;;;;;;;18.23;72.46;101923.72;7392261;19;20002;-68
2023/09/13 10:43:52;;;;;;;5.32;1.60;;;;;;;18.24;69.88;101931.69;7395067;19;19954;-68
2023/09/13 10:46:22;;;;;;;5.20;1.00;;;;;;;18.34;70.64;101932.16;7397492;19;20408;-68
2023/09/13 10:48:54;;;;;;;4.38;0.93;;;;;;;18.51;69.71;101941.69;7396908;19;19926;-69
2023/09/13 10:51:23;;;;;;;;;;;;;;;18.55;69.99;101939.44;7397753;19;19929;-68
2023/09/13 10:53:52;;;;;;;7.18;1.80;;;;;;;18.77;70.92;101937.44;7400257;19;20348;-69
2023/09/13 10:56:21;;;;;;;8.35;1.20;;;;;;;18.87;70.17;101938.72;7402624;19;19942;-68
2023/09/13 10:58:54;;;;;;;7.03;1.63;;;;;;;19.00;69.11;101936.00;7402727;19;20289;-68
2023/09/13 11:01:24;;;;;;;5.90;1.40;;;;;;;19.01;68.45;101947.78;7402443;19;19967;-68
2023/09/13 11:03:53;;;;;;;6.43;1.10;;;;;;;19.05;69.13;101954.53;7402523;19;20380;-68
2023/09/13 11:06:22;;;;;;;5.22;1.42;;;;;;;19.16;68.13;101953.91;7399404;19;19927;-68
2023/09/13 11:08:51;;;;;;;6.93;1.38;;;;;;;19.20;68.81;101951.63;7400070;19;19918;-68
2023/09/13 11:11:24;;;;;;;7.03;1.45;;;;;;;19.20;67.19;101951.63;7397264;19;19919;-68
2023/09/13 11:13:57;;;;;;;7.88;1.65;;;;;;;19.14;67.26;101952.44;7400849;19;19922;-68
2023/09/13 11:16:26;;;;;;;4.50;1.20;;;;;;;19.09;69.00;101961.25;7401431;19;19918;-68
2023/09/13 11:18:57;;;;;;;4.50;1.40;;;;;;;18.96;68.32;101956.59;7400102;19;19927;-68
2023/09/13 11:21:29;;;;;;;6.18;1.33;;;;;;;18.90;68.31;101968.31;7398985;19;19921;-68
2023/09/13 11:23:58;;;;;;;4.97;1.17;;;;;;;18.93;68.53;101964.38;7400992;19;19922;-68
2023/09/13 11:26:54;;;;;;;4.93;1.17;;;;;;;19.03;67.06;101962.91;7392406;19;19918;-69
2023/09/13 11:29:26;;;;;;;6.95;1.40;;;;;;;19.29;65.54;101977.66;7393261;19;19918;-69
2023/09/13 11:32:03;;;;;;;2.47;1.02;;;;;;;19.67;65.68;101976.09;7396480;19;19954;-68
2023/09/13 11:34:33;;;;;;;4.55;1.35;;;;;;;19.85;65.58;101979.00;7391806;19;20006;-69
2023/09/13 11:37:03;;;;;;;3.83;1.02;;;;;;;19.92;65.28;101988.06;7396181;19;19946;-69
2023/09/13 11:39:33;;;;;;;2.53;1.10;;;;;;;20.12;63.95;101989.94;7399069;19;19918;-68
2023/09/13 11:42:01;;;;;;;3.38;1.13;;;;;;;20.18;63.08;101997.31;7399674;19;20262;-69
2023/09/13 11:44:33;;;;;;;3.63;0.95;;;;;;;20.24;61.85;102000.00;7392587;19;19946;-68